Time;durP1;ratioP1;P1;durP2;ratioP2;P2;SDS_P1;SDS_P2;PMS_P1;PMS_P2;Temp;Humidity;BMP_temperature;BMP_pressure;BME280_temperature;BME280_humidity;BME280_pressure;Samples;Min_cycle;Max_cycle;Signal;HPM_P1;HPM_P2
2022/01/21 00:00:12;;;;;;;19.95;3.30;;;2.60;99.90;;;;;;5003091;28;20113;-80
2022/01/21 00:02:38;;;;;;;20.17;3.80;;;2.60;99.90;;;;;;5001656;28;20046;-79
2022/01/21 00:05:05;;;;;;;42.70;16.13;;;2.30;99.90;;;;;;5005429;28;20080;-80
2022/01/21 00:07:31;;;;;;;20.58;4.80;;;2.60;99.90;;;;;;5005636;28;20129;-79
2022/01/21 00:09:57;;;;;;;15.57;1.80;;;2.50;99.90;;;;;;4995593;28;20130;-80
2022/01/21 00:12:24;;;;;;;19.52;1.92;;;;;;;;;;5002285;28;20379;-78
2022/01/21 00:14:49;;;;;;;7.22;1.55;;;2.50;99.90;;;;;;4992957;28;20049;-79
2022/01/21 00:17:18;;;;;;;8.35;1.10;;;2.70;99.90;;;;;;5008977;28;20046;-79
2022/01/21 00:19:48;;;;;;;7.18;1.55;;;2.20;99.90;;;;;;5018809;28;20042;-78
2022/01/21 00:30:26;;;;;;;14.10;1.80;;;2.50;99.90;;;;;;5006841;28;20533;-79
2022/01/21 00:32:53;;;;;;;10.25;1.17;;;2.50;99.90;;;;;;5004426;28;20308;-78
2022/01/21 00:35:20;;;;;;;7.80;1.05;;;2.70;99.90;;;;;;5006367;28;20427;-75
2022/01/21 00:37:46;;;;;;;9.07;0.93;;;3.80;99.90;;;;;;5004373;28;20042;-79
2022/01/21 00:40:16;;;;;;;14.32;1.95;;;2.50;99.90;;;;;;5005960;28;20045;-80
2022/01/21 00:45:14;;;;;;;6.22;1.10;;;2.40;99.90;;;;;;5001138;28;20038;-79
2022/01/21 00:47:40;;;;;;;14.75;1.67;;;2.50;99.90;;;;;;5001835;28;20042;-79
2022/01/21 00:50:06;;;;;;;14.35;2.47;;;2.40;99.90;;;;;;5004743;28;20466;-80
2022/01/21 00:52:32;;;;;;;18.05;2.47;;;2.40;99.90;;;;;;5004407;28;20081;-79
2022/01/21 00:54:57;;;;;;;14.27;1.92;;;4.50;99.90;;;;;;5003305;28;20088;-79
2022/01/21 00:57:23;;;;;;;16.88;2.22;;;2.20;99.90;;;;;;5006342;28;20091;-79
2022/01/21 00:59:48;;;;;;;13.55;1.40;;;2.60;99.90;;;;;;4995457;28;20049;-77
2022/01/21 01:02:14;;;;;;;20.70;2.25;;;4.30;99.90;;;;;;5001674;28;20046;-80
2022/01/21 01:04:40;;;;;;;10.05;2.15;;;3.90;99.90;;;;;;5001380;28;20112;-79
2022/01/21 01:07:06;;;;;;;16.90;1.45;;;1.80;99.90;;;;;;5003462;28;20205;-80
2022/01/21 01:09:33;;;;;;;9.55;1.90;;;2.20;99.90;;;;;;5006535;28;20458;-80
2022/01/21 01:22:24;;;;;;;12.75;1.42;;;2.30;99.90;;;;;;5000658;28;20070;-76
2022/01/21 01:27:51;;;;;;;8.82;1.17;;;2.30;99.90;;;;;;5003585;28;20129;-77
2022/01/21 01:30:24;;;;;;;12.38;1.73;;;3.00;99.90;;;;;;5005215;28;20053;-77
2022/01/21 01:32:51;;;;;;;9.60;1.40;;;2.30;99.90;;;;;;5003945;28;20509;-79
2022/01/21 01:35:20;;;;;;;6.35;0.73;;;2.30;99.90;;;;;;5000733;28;20470;-76
2022/01/21 01:40:36;;;;;;;9.10;1.13;;;2.30;99.90;;;;;;5003985;28;20580;-79
2022/01/21 01:50:59;;;;;;;4.00;0.50;;;4.60;99.90;;;;;;5001756;28;20088;-80
2022/01/21 01:53:39;;;;;;;9.73;0.60;;;2.50;99.90;;;;;;5002840;28;20045;-78
2022/01/21 01:56:07;;;;;;;11.75;1.80;;;2.50;99.90;;;;;;4994971;28;20058;-79
2022/01/21 01:58:38;;;;;;;6.22;0.82;;;2.40;99.90;;;;;;5004116;28;20053;-77
2022/01/21 02:01:05;;;;;;;4.15;0.60;;;4.20;99.90;;;;;;5001380;28;20045;-79
2022/01/21 02:03:32;;;;;;;5.53;0.63;;;1.90;99.90;;;;;;5005702;28;20034;-79
2022/01/21 02:05:58;;;;;;;6.53;0.70;;;2.50;99.90;;;;;;5003082;28;20085;-78
2022/01/21 02:08:25;;;;;;;3.13;0.45;;;1.90;99.90;;;;;;5004150;28;20046;-78
2022/01/21 02:10:51;;;;;;;8.30;0.85;;;2.40;99.90;;;;;;5004075;28;20041;-77
2022/01/21 02:13:21;;;;;;;6.22;0.90;;;2.40;99.90;;;;;;5003662;28;20399;-80
2022/01/21 02:16:02;;;;;;;7.28;0.93;;;3.40;99.90;;;;;;5004402;28;20125;-80
2022/01/21 02:21:30;;;;;;;4.32;0.95;;;2.40;99.90;;;;;;5000448;28;20054;-79
2022/01/21 02:23:56;;;;;;;9.80;0.80;;;3.10;99.90;;;;;;4999924;28;20054;-80
2022/01/21 02:26:22;;;;;;;10.00;1.10;;;4.30;99.90;;;;;;5003225;28;20121;-79
2022/01/21 02:28:48;;;;;;;9.60;1.17;;;1.90;99.90;;;;;;5003744;28;20065;-79
2022/01/21 02:31:14;;;;;;;6.93;1.23;;;2.20;99.90;;;;;;4991344;28;20047;-79
2022/01/21 02:33:39;;;;;;;5.72;0.63;;;2.20;99.90;;;;;;4999473;28;20533;-76
2022/01/21 02:36:05;;;;;;;9.02;0.88;;;2.70;99.90;;;;;;5018217;28;20518;-79
2022/01/21 02:38:31;;;;;;;7.78;0.80;;;3.30;99.90;;;;;;5005231;28;20097;-78
2022/01/21 02:40:56;;;;;;;5.35;0.90;;;2.20;99.90;;;;;;5000774;28;20048;-80
2022/01/21 02:43:23;;;;;;;9.82;0.88;;;2.40;99.90;;;;;;5001733;28;20077;-78
2022/01/21 02:45:48;;;;;;;14.40;1.23;;;2.40;99.90;;;;;;5003279;28;20042;-79
2022/01/21 02:48:14;;;;;;;16.60;0.98;;;2.30;99.90;;;;;;5000222;28;20049;-79
2022/01/21 02:50:40;;;;;;;8.52;0.95;;;2.40;99.90;;;;;;4999443;28;20463;-80
2022/01/21 02:53:23;;;;;;;13.82;1.05;;;4.30;99.90;;;;;;5001075;28;20528;-76
2022/01/21 02:55:48;;;;;;;9.35;1.75;;;2.80;99.90;;;;;;5003538;28;20127;-77
2022/01/21 02:58:14;;;;;;;6.70;0.50;;;2.30;99.90;;;;;;4999679;28;20070;-78
2022/01/21 03:00:40;;;;;;;8.27;0.88;;;3.50;99.90;;;;;;5005740;28;20379;-79
2022/01/21 03:03:05;;;;;;;6.65;0.70;;;2.30;99.90;;;;;;4992663;28;20049;-77
2022/01/21 03:05:34;;;;;;;5.18;0.50;;;2.30;99.90;;;;;;5015029;28;20062;-77
2022/01/21 03:08:00;;;;;;;5.07;0.50;;;2.30;99.90;;;;;;5000584;28;20055;-79
2022/01/21 03:10:26;;;;;;;10.35;0.55;;;2.30;99.90;;;;;;5002956;28;20080;-79
2022/01/21 03:12:53;;;;;;;6.00;0.55;;;3.60;99.90;;;;;;5001736;28;20081;-80
2022/01/21 03:15:19;;;;;;;7.57;1.75;;;2.70;99.90;;;;;;5023613;28;20066;-80
2022/01/21 03:17:45;;;;;;;7.05;0.75;;;4.00;99.90;;;;;;5006798;28;20045;-79
2022/01/21 03:20:11;;;;;;;9.18;0.93;;;1.90;99.90;;;;;;5001227;28;20591;-80
2022/01/21 03:22:37;;;;;;;5.07;0.80;;;2.00;99.90;;;;;;5000458;28;20038;-77
2022/01/21 03:25:07;;;;;;;12.02;1.33;;;2.10;99.90;;;;;;5000201;28;20046;-81
2022/01/21 03:27:33;;;;;;;10.30;2.00;;;2.10;99.90;;;;;;5001667;28;20046;-80
2022/01/21 03:29:59;;;;;;;9.25;1.45;;;2.00;99.90;;;;;;5018517;28;20037;-79
2022/01/21 03:32:25;;;;;;;10.40;1.15;;;1.10;99.90;;;;;;4998514;28;20549;-76
2022/01/21 03:34:51;;;;;;;13.75;1.67;;;2.10;99.90;;;;;;5006699;28;20046;-80
2022/01/21 03:37:17;;;;;;;5.97;1.55;;;1.40;99.90;;;;;;5015973;28;20426;-78
2022/01/21 03:39:43;;;;;;;6.10;1.10;;;1.90;99.90;;;;;;4998890;28;20085;-80
2022/01/21 03:42:08;;;;;;;7.93;0.88;;;1.90;99.90;;;;;;5007114;28;20200;-79
2022/01/21 03:44:34;;;;;;;9.82;0.77;;;3.70;99.90;;;;;;4998528;28;20050;-80
2022/01/21 03:47:00;;;;;;;7.05;1.00;;;1.80;99.90;;;;;;4988546;28;20038;-80
2022/01/21 03:49:28;;;;;;;3.55;0.50;;;1.60;99.90;;;;;;5002604;28;20379;-79
2022/01/21 03:51:54;;;;;;;10.85;1.38;;;1.80;99.90;;;;;;5002406;28;20043;-79
2022/01/21 03:54:19;;;;;;;3.25;0.50;;;1.70;99.90;;;;;;5001378;28;20045;-80
2022/01/21 03:56:45;;;;;;;9.82;0.98;;;1.80;99.90;;;;;;5002652;28;20136;-79
2022/01/21 03:59:11;;;;;;;3.13;0.50;;;1.80;99.90;;;;;;4991892;28;20399;-77
2022/01/21 04:01:36;;;;;;;6.30;0.50;;;1.80;99.90;;;;;;5003670;28;20054;-79
2022/01/21 04:04:02;;;;;;;7.78;0.50;;;1.80;99.90;;;;;;5001086;28;20042;-79
2022/01/21 04:06:28;;;;;;;4.82;1.02;;;1.80;99.90;;;;;;4998561;28;20471;-79
2022/01/21 04:08:54;;;;;;;3.85;0.45;;;1.80;99.90;;;;;;5006071;28;20046;-76
2022/01/21 04:11:19;;;;;;;6.13;0.63;;;1.70;99.90;;;;;;5000002;28;20038;-79
2022/01/21 04:13:46;;;;;;;4.55;0.88;;;3.80;99.90;;;;;;4999057;28;20372;-80
2022/01/21 04:16:12;;;;;;;9.40;1.08;;;1.60;99.90;;;;;;5016599;28;20061;-79
2022/01/21 04:18:37;;;;;;;17.52;1.15;;;1.30;99.90;;;;;;5005673;28;20046;-79
2022/01/21 04:21:03;;;;;;;9.90;1.15;;;1.60;99.90;;;;;;5004954;28;20092;-80
2022/01/21 04:23:29;;;;;;;14.98;1.52;;;1.80;99.90;;;;;;5000813;28;20053;-79
2022/01/21 04:25:55;;;;;;;17.20;2.25;;;1.50;99.90;;;;;;5002320;28;20039;-76
2022/01/21 04:28:21;;;;;;;11.48;1.88;;;1.60;99.90;;;;;;5005338;28;20042;-80
2022/01/21 04:30:47;;;;;;;14.35;1.85;;;1.30;99.90;;;;;;5005037;28;20050;-78
2022/01/21 04:33:12;;;;;;;18.13;2.17;;;1.70;99.90;;;;;;5003399;28;20049;-80
2022/01/21 04:35:40;;;;;;;18.23;1.42;;;1.80;99.90;;;;;;5007790;28;20049;-79
2022/01/21 04:38:09;;;;;;;9.02;1.55;;;4.10;99.90;;;;;;5003570;28;20485;-78
2022/01/21 04:40:41;;;;;;;13.00;1.85;;;1.80;99.90;;;;;;4987356;28;20128;-78
2022/01/21 04:48:36;;;;;;;8.18;1.45;;;1.70;99.90;;;;;;5006489;28;20486;-79
2022/01/21 04:51:16;;;;;;;7.70;0.95;;;1.90;99.90;;;;;;5004291;28;20050;-79
2022/01/21 04:53:44;;;;;;;7.25;0.55;;;1.80;99.90;;;;;;5002040;28;20358;-77
2022/01/21 04:56:10;;;;;;;7.55;1.08;;;2.10;99.90;;;;;;5003126;28;20081;-79
2022/01/21 04:58:36;;;;;;;10.95;1.55;;;1.90;99.90;;;;;;4996029;28;20076;-79
2022/01/21 05:01:04;;;;;;;11.27;1.85;;;1.50;99.90;;;;;;5005052;28;20042;-79
2022/01/21 05:03:31;;;;;;;15.40;2.90;;;-0.30;99.90;;;;;;5001370;28;20046;-80
2022/01/21 05:05:56;;;;;;;17.73;2.10;;;1.80;99.90;;;;;;5001340;28;20506;-79
2022/01/21 05:08:30;;;;;;;12.48;0.85;;;1.90;99.90;;;;;;5005037;28;20130;-80
2022/01/21 05:10:56;;;;;;;9.23;1.10;;;2.10;99.90;;;;;;5005134;28;20042;-79
2022/01/21 05:13:26;;;;;;;8.85;1.00;;;1.30;99.90;;;;;;5001756;28;20047;-77
2022/01/21 05:18:23;;;;;;;9.10;1.33;;;2.00;99.90;;;;;;5002488;28;20050;-80
2022/01/21 05:20:48;;;;;;;11.75;1.50;;;2.90;99.90;;;;;;5002331;28;20046;-78
2022/01/21 05:23:14;;;;;;;13.52;0.85;;;1.50;99.90;;;;;;5009311;28;20138;-80
2022/01/21 05:25:39;;;;;;;10.10;1.42;;;2.10;99.90;;;;;;5017212;28;20054;-80
2022/01/21 05:28:05;;;;;;;15.00;1.35;;;2.20;99.90;;;;;;5001596;28;20053;-80
2022/01/21 05:30:30;;;;;;;8.60;1.00;;;3.20;99.90;;;;;;5004742;28;20050;-79
2022/01/21 05:32:56;;;;;;;11.35;1.17;;;2.30;99.90;;;;;;5020262;28;20546;-76
2022/01/21 05:35:22;;;;;;;9.85;1.33;;;2.60;99.90;;;;;;5003181;28;20046;-80
2022/01/21 05:37:47;;;;;;;8.32;1.10;;;2.30;99.90;;;;;;5001272;28;20054;-80
2022/01/21 05:40:14;;;;;;;11.85;1.15;;;2.90;99.90;;;;;;5002379;28;20046;-78
2022/01/21 05:42:40;;;;;;;15.02;1.42;;;2.20;99.90;;;;;;5003951;28;20048;-80
2022/01/21 05:47:33;;;;;;;10.90;1.73;;;2.20;99.90;;;;;;4999966;28;20192;-80
2022/01/21 05:49:58;;;;;;;9.48;1.50;;;2.10;99.90;;;;;;5017859;28;20477;-80
2022/01/21 05:52:34;;;;;;;11.15;2.08;;;2.10;99.90;;;;;;4995326;28;20036;-79
2022/01/21 05:55:00;;;;;;;12.75;1.48;;;2.20;99.90;;;;;;5003950;28;20046;-80
2022/01/21 05:57:26;;;;;;;8.00;1.70;;;2.20;99.90;;;;;;5003939;28;20038;-79
2022/01/21 05:59:51;;;;;;;12.18;2.55;;;1.80;99.90;;;;;;4995916;28;20476;-76
2022/01/21 06:02:17;;;;;;;16.13;1.65;;;2.20;99.90;;;;;;5001395;28;20053;-76
2022/01/21 06:04:46;;;;;;;12.02;1.25;;;1.70;99.90;;;;;;5000893;28;20045;-79
2022/01/21 06:07:12;;;;;;;8.00;0.90;;;2.00;99.90;;;;;;5001281;28;20053;-80
2022/01/21 06:09:38;;;;;;;10.20;1.30;;;2.30;99.90;;;;;;5004081;28;20053;-79
2022/01/21 06:12:05;;;;;;;10.10;1.35;;;2.10;99.90;;;;;;5004837;28;20124;-79
2022/01/21 06:14:31;;;;;;;12.98;0.93;;;2.00;99.90;;;;;;5000987;28;20163;-79
2022/01/21 06:16:56;;;;;;;15.43;1.63;;;2.80;99.90;;;;;;5000932;28;20067;-79
2022/01/21 06:19:22;;;;;;;8.15;0.70;;;2.30;99.90;;;;;;5008612;28;20421;-76
2022/01/21 06:21:48;;;;;;;12.13;1.70;;;2.10;99.90;;;;;;5021956;28;20050;-80
2022/01/21 06:24:13;;;;;;;29.10;5.53;;;2.00;99.90;;;;;;4994066;28;20045;-76
2022/01/21 06:26:39;;;;;;;8.07;2.80;;;2.30;99.90;;;;;;5000171;28;20125;-75
2022/01/21 06:29:05;;;;;;;18.42;4.30;;;4.10;99.90;;;;;;5008057;28;20037;-76
2022/01/21 06:31:31;;;;;;;13.07;5.82;;;2.30;99.90;;;;;;4999899;28;20054;-78
2022/01/21 06:33:57;;;;;;;15.02;5.00;;;2.00;99.90;;;;;;5000444;28;20060;-80
2022/01/21 06:36:23;;;;;;;11.25;4.40;;;2.30;99.90;;;;;;5001700;28;20050;-80
2022/01/21 06:38:49;;;;;;;8.95;3.33;;;2.30;99.90;;;;;;5006153;28;20054;-77
2022/01/21 06:41:14;;;;;;;12.80;2.75;;;2.20;99.90;;;;;;5001186;28;20039;-77
2022/01/21 06:43:40;;;;;;;10.23;1.10;;;2.20;99.90;;;;;;4994143;28;20061;-76
2022/01/21 06:46:07;;;;;;;10.32;1.42;;;2.10;99.90;;;;;;5003382;28;20046;-78
2022/01/21 06:48:33;;;;;;;5.93;1.17;;;2.90;99.90;;;;;;4999793;28;20046;-79
2022/01/21 06:50:58;;;;;;;12.35;1.38;;;1.70;99.90;;;;;;5006481;28;20042;-79
2022/01/21 06:53:24;;;;;;;7.40;0.95;;;2.20;99.90;;;;;;5000760;28;20077;-76
2022/01/21 06:55:50;;;;;;;7.22;0.82;;;2.10;99.90;;;;;;4989903;28;20434;-80
2022/01/21 06:58:15;;;;;;;9.98;1.05;;;2.10;99.90;;;;;;5002820;28;20129;-80
2022/01/21 07:00:41;;;;;;;9.63;1.13;;;2.50;99.90;;;;;;5003121;28;20492;-80
2022/01/21 07:03:06;;;;;;;6.05;0.85;;;2.00;99.90;;;;;;4994695;28;20042;-75
2022/01/21 07:05:32;;;;;;;7.88;0.70;;;1.90;99.90;;;;;;5002586;28;20482;-76
2022/01/21 07:07:59;;;;;;;6.25;0.60;;;2.00;99.90;;;;;;4994810;28;20060;-75
2022/01/21 07:10:25;;;;;;;10.05;1.65;;;2.20;99.90;;;;;;5000836;28;20050;-79
2022/01/21 07:12:51;;;;;;;10.77;1.23;;;2.00;99.90;;;;;;4999053;28;20133;-80
2022/01/21 07:15:19;;;;;;;6.55;2.45;;;2.10;99.90;;;;;;5001071;28;20129;-75
2022/01/21 07:17:46;;;;;;;12.10;1.52;;;2.70;99.90;;;;;;5018554;28;20042;-80
2022/01/21 07:20:12;;;;;;;11.73;1.80;;;2.30;99.90;;;;;;5002765;28;20482;-76
2022/01/21 07:22:38;;;;;;;18.23;3.40;;;4.10;99.90;;;;;;4999365;28;20069;-75
2022/01/21 07:25:05;;;;;;;11.88;1.90;;;1.40;99.90;;;;;;4999269;28;20422;-80
2022/01/21 07:27:31;;;;;;;17.50;2.13;;;2.00;99.90;;;;;;5002723;28;20471;-76
2022/01/21 07:29:57;;;;;;;16.75;2.75;;;2.20;99.90;;;;;;5021147;28;20104;-80
2022/01/21 07:32:22;;;;;;;13.13;1.63;;;1.70;99.90;;;;;;5000417;28;20054;-76
2022/01/21 07:34:48;;;;;;;19.40;2.97;;;1.70;99.90;;;;;;5003314;28;20107;-79
2022/01/21 07:37:14;;;;;;;15.13;1.55;;;1.80;99.90;;;;;;5002288;28;20050;-77
2022/01/21 07:39:39;;;;;;;14.52;1.50;;;2.30;99.90;;;;;;4998650;28;20388;-75
2022/01/21 07:42:05;;;;;;;13.77;2.20;;;2.50;99.90;;;;;;5007119;28;20557;-77
2022/01/21 07:44:31;;;;;;;11.23;2.05;;;2.40;99.90;;;;;;4999376;28;20503;-79
2022/01/21 07:46:57;;;;;;;18.73;2.47;;;2.40;99.90;;;;;;4999173;28;20188;-79
2022/01/21 07:49:22;;;;;;;12.07;1.58;;;5.20;99.90;;;;;;5023695;28;20387;-76
2022/01/21 07:51:48;;;;;;;12.35;1.63;;;2.60;99.90;;;;;;5000830;28;20039;-80
2022/01/21 07:54:13;;;;;;;14.95;1.50;;;3.00;99.90;;;;;;5003225;28;20178;-76
2022/01/21 07:56:39;;;;;;;14.52;1.92;;;2.60;99.90;;;;;;5006731;28;20501;-81
2022/01/21 07:59:09;;;;;;;9.43;1.45;;;2.60;99.90;;;;;;4998443;28;20050;-80
2022/01/21 08:01:35;;;;;;;9.13;1.63;;;5.10;99.90;;;;;;5002145;28;20112;-76
2022/01/21 08:04:01;;;;;;;16.75;2.03;;;2.70;99.90;;;;;;5009803;28;20129;-79
2022/01/21 08:06:27;;;;;;;13.80;1.75;;;2.20;99.90;;;;;;5003927;28;20509;-79
2022/01/21 08:08:57;;;;;;;17.10;1.98;;;2.70;99.90;;;;;;5024674;28;20049;-80
2022/01/21 08:11:23;;;;;;;19.08;1.65;;;2.70;99.90;;;;;;5004840;28;20455;-76
2022/01/21 08:13:49;;;;;;;20.08;2.00;;;1.30;99.90;;;;;;5002338;28;20065;-76
2022/01/21 08:16:15;;;;;;;18.05;2.13;;;2.70;99.90;;;;;;4995053;28;20037;-77
2022/01/21 08:18:40;;;;;;;14.63;1.67;;;2.70;99.90;;;;;;4997698;28;20061;-78
2022/01/21 08:21:06;;;;;;;17.38;2.35;;;2.70;99.90;;;;;;4997418;28;20548;-80
2022/01/21 08:23:32;;;;;;;10.90;1.38;;;2.50;99.90;;;;;;5002888;28;20096;-77
2022/01/21 08:25:57;;;;;;;18.95;2.17;;;2.50;99.90;;;;;;4992971;28;20118;-78
2022/01/21 08:28:23;;;;;;;13.18;2.08;;;2.80;99.90;;;;;;4996794;28;20069;-76
2022/01/21 08:30:49;;;;;;;16.67;2.17;;;2.60;99.90;;;;;;5005098;28;20038;-79
2022/01/21 08:33:14;;;;;;;21.13;2.13;;;2.40;99.90;;;;;;5008661;28;20061;-82
2022/01/21 08:35:40;;;;;;;9.50;1.90;;;2.50;99.90;;;;;;5002808;28;20046;-80
2022/01/21 08:38:06;;;;;;;16.05;1.85;;;2.50;99.90;;;;;;5010066;28;20038;-79
2022/01/21 08:40:32;;;;;;;12.45;2.17;;;2.50;99.90;;;;;;5003584;28;20069;-80
2022/01/21 08:42:58;;;;;;;17.25;2.40;;;2.50;99.90;;;;;;4996012;28;20120;-80
2022/01/21 08:45:24;;;;;;;15.10;2.33;;;4.30;99.90;;;;;;5017143;28;20038;-80
2022/01/21 08:47:51;;;;;;;11.55;2.10;;;2.50;99.90;;;;;;5006541;28;20056;-82
2022/01/21 08:50:19;;;;;;;20.15;2.88;;;2.50;99.90;;;;;;4996121;28;20050;-83
2022/01/21 08:52:46;;;;;;;13.02;1.80;;;2.50;99.90;;;;;;5000428;28;20049;-79
2022/01/21 08:55:14;;;;;;;12.38;1.65;;;2.60;99.90;;;;;;4991580;28;20065;-80
2022/01/21 08:57:42;;;;;;;19.98;2.65;;;2.60;99.90;;;;;;4993240;28;20038;-77
2022/01/21 09:00:20;;;;;;;10.18;2.92;;;2.70;99.90;;;;;;4995698;28;20055;-77
2022/01/21 09:02:46;;;;;;;18.38;2.60;;;2.70;99.90;;;;;;5007731;28;20042;-80
2022/01/21 09:05:12;;;;;;;14.93;1.67;;;4.40;99.90;;;;;;5007096;28;20042;-78
2022/01/21 09:07:38;;;;;;;18.95;2.95;;;2.80;99.90;;;;;;5003146;28;20046;-79
2022/01/21 09:10:06;;;;;;;14.75;2.53;;;2.80;99.90;;;;;;4997543;28;20053;-79
2022/01/21 09:12:32;;;;;;;13.13;2.13;;;2.90;99.90;;;;;;5003784;28;20414;-80
2022/01/21 09:14:57;;;;;;;14.73;2.13;;;2.70;99.90;;;;;;5004682;28;20037;-79
2022/01/21 09:17:23;;;;;;;13.55;2.17;;;3.00;99.90;;;;;;4998684;28;20819;-79
2022/01/21 09:19:49;;;;;;;22.08;2.40;;;3.00;99.90;;;;;;5005888;28;20117;-79
2022/01/21 09:22:14;;;;;;;22.75;3.40;;;2.90;99.90;;;;;;4988060;28;20042;-80
2022/01/21 09:24:40;;;;;;;21.17;3.60;;;3.00;99.90;;;;;;5006488;28;20069;-80
2022/01/21 09:27:06;;;;;;;18.73;3.30;;;3.10;99.90;;;;;;5004714;28;20046;-79
2022/01/21 09:29:33;;;;;;;14.68;2.85;;;3.10;99.90;;;;;;5004338;28;20049;-77
2022/01/21 09:32:00;;;;;;;16.50;2.90;;;3.10;99.90;;;;;;4999098;28;20172;-79
2022/01/21 09:34:34;;;;;;;23.80;3.73;;;2.70;99.90;;;;;;4618332;28;10002856;-78
2022/01/21 09:37:01;;;;;;;22.85;2.63;;;4.50;99.90;;;;;;5003058;28;20034;-78
2022/01/21 09:39:28;;;;;;;19.83;3.28;;;3.20;99.90;;;;;;5001200;28;20062;-78
2022/01/21 09:41:59;;;;;;;17.38;2.10;;;3.30;99.90;;;;;;4997680;28;20052;-77
2022/01/21 09:44:27;;;;;;;18.20;2.70;;;3.30;99.90;;;;;;4998415;28;20442;-78
2022/01/21 09:46:56;;;;;;;18.83;2.55;;;3.40;99.90;;;;;;4998751;28;20773;-77
2022/01/21 09:52:02;;;;;;;15.73;2.28;;;3.40;99.90;;;;;;5006040;28;20048;-79
2022/01/21 09:54:33;;;;;;;13.60;2.15;;;3.50;99.90;;;;;;5003357;28;20490;-78
2022/01/21 09:57:01;;;;;;;15.43;2.22;;;5.80;99.90;;;;;;4985832;28;20049;-79
2022/01/21 09:59:28;;;;;;;12.63;2.20;;;3.70;99.90;;;;;;5000196;28;20045;-78
2022/01/21 10:02:00;;;;;;;20.05;2.90;;;3.70;99.90;;;;;;4998780;28;20065;-78
2022/01/21 10:04:32;;;;;;;13.60;2.03;;;3.80;99.90;;;;;;4998672;28;20057;-79
2022/01/21 10:07:00;;;;;;;15.63;2.90;;;3.70;99.90;;;;;;5001084;28;20429;-79
2022/01/21 10:09:26;;;;;;;10.98;2.50;;;3.80;99.90;;;;;;5001552;28;20033;-79
2022/01/21 10:11:53;;;;;;;10.50;1.50;;;3.90;99.90;;;;;;5005976;28;20326;-79
2022/01/21 10:14:24;;;;;;;13.98;2.13;;;4.00;99.90;;;;;;5003736;28;20077;-79
2022/01/21 10:16:52;;;;;;;14.55;1.83;;;4.00;99.90;;;;;;4998689;28;20104;-78
2022/01/21 10:19:29;;;;;;;21.08;2.53;;;4.10;99.90;;;;;;5008834;28;20152;-79
2022/01/21 10:22:04;;;;;;;16.77;3.10;;;4.20;99.90;;;;;;5005724;28;20430;-79
2022/01/21 10:24:31;;;;;;;14.20;1.77;;;4.30;99.90;;;;;;5004568;28;20061;-79
2022/01/21 10:26:57;;;;;;;17.10;1.65;;;4.30;99.90;;;;;;4993612;28;20137;-79
2022/01/21 10:29:24;;;;;;;18.27;2.05;;;5.00;99.90;;;;;;5001394;28;20048;-80
2022/01/21 10:31:52;;;;;;;9.77;1.65;;;4.10;99.90;;;;;;4999567;28;20105;-79
2022/01/21 10:34:25;;;;;;;8.93;1.27;;;4.40;99.90;;;;;;4980898;28;20038;-78
2022/01/21 10:36:56;;;;;;;14.85;2.15;;;4.50;99.90;;;;;;5021432;28;20049;-78
2022/01/21 10:39:29;;;;;;;9.95;1.70;;;4.50;99.90;;;;;;5002469;28;20501;-79
2022/01/21 10:41:57;;;;;;;12.60;1.95;;;4.50;99.90;;;;;;4994978;28;20077;-78
2022/01/21 10:44:30;;;;;;;17.00;2.20;;;4.70;99.90;;;;;;5001108;28;20041;-79
2022/01/21 10:47:08;;;;;;;12.65;2.17;;;4.70;99.90;;;;;;5000420;28;20129;-79
2022/01/21 10:49:35;;;;;;;15.10;1.88;;;4.80;99.90;;;;;;5005599;28;20107;-79
2022/01/21 10:52:02;;;;;;;13.73;2.25;;;5.40;99.90;;;;;;4999781;28;20039;-78
2022/01/21 10:54:30;;;;;;;19.52;2.85;;;4.80;99.90;;;;;;5000307;28;20041;-78
2022/01/21 10:57:02;;;;;;;19.77;3.00;;;4.90;99.90;;;;;;4999229;28;20042;-80
2022/01/21 10:59:43;;;;;;;26.63;2.80;;;5.00;99.90;;;;;;4980769;28;20070;-80
2022/01/21 11:02:11;;;;;;;17.67;2.05;;;5.00;99.90;;;;;;5013431;28;20042;-80
2022/01/21 11:04:41;;;;;;;16.45;2.05;;;5.10;99.90;;;;;;4988343;28;20042;-79
2022/01/21 11:07:08;;;;;;;22.83;2.50;;;5.20;99.90;;;;;;4996760;28;20038;-80
2022/01/21 11:09:39;;;;;;;19.60;1.95;;;7.10;99.90;;;;;;5003911;28;20125;-78
2022/01/21 11:12:11;;;;;;;15.85;1.45;;;5.40;99.90;;;;;;5016554;28;20049;-79
2022/01/21 11:14:58;;;;;;;15.85;1.63;;;5.50;99.90;;;;;;4991762;28;20045;-78
2022/01/21 11:17:24;;;;;;;27.33;3.45;;;6.80;99.90;;;;;;4990857;28;20450;-79
2022/01/21 11:20:06;;;;;;;12.13;1.88;;;6.70;99.90;;;;;;4999743;28;20045;-79
2022/01/21 11:22:50;;;;;;;13.57;2.13;;;5.70;99.90;;;;;;4999416;28;20152;-79
2022/01/21 11:25:16;;;;;;;12.13;1.43;;;5.80;99.90;;;;;;5006517;28;20397;-79
2022/01/21 11:27:55;;;;;;;15.77;2.70;;;6.00;99.90;;;;;;4985859;28;20054;-78
2022/01/21 11:30:21;;;;;;;16.23;2.13;;;5.90;99.90;;;;;;5018569;28;20121;-79
2022/01/21 11:32:46;;;;;;;18.20;2.28;;;5.90;99.90;;;;;;5011027;28;20168;-79
2022/01/21 11:35:12;;;;;;;12.45;1.13;;;5.80;99.90;;;;;;5005201;28;20722;-78
2022/01/21 11:37:38;;;;;;;18.38;2.50;;;5.90;99.90;;;;;;5003655;28;20057;-79
2022/01/21 11:40:05;;;;;;;17.23;2.38;;;5.90;99.90;;;;;;5021902;28;20482;-79
2022/01/21 11:42:35;;;;;;;15.40;2.35;;;5.90;99.90;;;;;;5007725;28;20084;-79
2022/01/21 11:45:17;;;;;;;10.57;1.00;;;6.00;99.90;;;;;;5001108;28;20454;-81
2022/01/21 11:48:01;;;;;;;17.20;1.65;;;6.40;99.90;;;;;;5002317;28;20072;-77
2022/01/21 11:50:29;;;;;;;11.60;1.52;;;6.00;99.90;;;;;;4994987;28;20506;-77
2022/01/21 11:52:55;;;;;;;18.13;2.13;;;5.90;99.90;;;;;;5007028;28;20068;-76
2022/01/21 11:55:38;;;;;;;11.90;1.50;;;5.90;99.90;;;;;;4989814;28;20049;-79
2022/01/21 11:58:15;;;;;;;17.02;3.08;;;5.90;99.90;;;;;;5007424;28;20070;-83
2022/01/21 12:00:41;;;;;;;14.02;1.80;;;5.90;99.90;;;;;;5003780;28;20089;-84
2022/01/21 12:03:07;;;;;;;11.75;1.77;;;5.90;99.90;;;;;;4997008;28;20133;-82
2022/01/21 12:05:34;;;;;;;18.25;1.90;;;6.00;99.90;;;;;;5000391;28;20136;-80
2022/01/21 12:08:04;;;;;;;10.45;2.20;;;6.00;99.90;;;;;;5000916;28;20046;-80
2022/01/21 12:10:34;;;;;;;17.85;1.50;;;6.00;99.90;;;;;;5003872;28;20090;-80
2022/01/21 12:13:05;;;;;;;11.40;1.80;;;6.10;99.90;;;;;;4993318;28;20050;-80
2022/01/21 12:18:37;;;;;;;13.50;1.67;;;6.10;99.90;;;;;;5009725;28;20498;-80
2022/01/21 12:21:27;;;;;;;11.00;1.50;;;6.10;99.90;;;;;;5003122;28;20038;-80
2022/01/21 12:23:52;;;;;;;18.70;1.63;;;6.20;99.90;;;;;;5009659;28;20050;-80
2022/01/21 12:26:20;;;;;;;11.15;1.73;;;7.40;99.90;;;;;;5001768;28;20040;-79
2022/01/21 12:28:52;;;;;;;10.00;1.30;;;6.20;99.90;;;;;;5010529;28;20046;-80
2022/01/21 12:31:19;;;;;;;10.27;1.60;;;6.20;99.90;;;;;;5002128;28;20050;-80
2022/01/21 12:34:02;;;;;;;11.85;1.67;;;6.20;99.90;;;;;;5001820;28;20509;-80
2022/01/21 12:36:31;;;;;;;9.18;1.63;;;6.20;99.90;;;;;;5000706;28;20049;-80
2022/01/21 12:41:24;;;;;;;19.88;1.83;;;6.30;99.90;;;;;;5003219;28;20161;-80
2022/01/21 12:44:03;;;;;;;18.90;2.50;;;6.30;99.90;;;;;;4986556;28;20145;-80
2022/01/21 12:46:33;;;;;;;14.90;2.58;;;6.40;99.90;;;;;;5004885;28;20049;-80
2022/01/21 12:49:00;;;;;;;19.00;2.45;;;6.40;99.90;;;;;;5004402;28;20042;-80
2022/01/21 12:56:53;;;;;;;13.80;2.60;;;6.30;99.90;;;;;;5005250;28;20132;-79
2022/01/21 12:59:25;;;;;;;17.55;2.08;;;6.20;99.90;;;;;;4999808;28;20046;-81
2022/01/21 13:01:51;;;;;;;12.82;2.00;;;6.20;99.90;;;;;;5005961;28;20047;-79
2022/01/21 13:04:49;;;;;;;19.67;2.33;;;6.20;99.90;;;;;;5004724;28;20057;-80
2022/01/21 13:07:31;;;;;;;15.95;2.88;;;6.20;99.90;;;;;;5004932;28;20517;-80
2022/01/21 13:10:21;;;;;;;14.30;2.28;;;6.20;99.90;;;;;;5006267;28;20054;-80
2022/01/21 13:13:01;;;;;;;14.32;2.80;;;6.20;99.90;;;;;;5004497;28;20046;-80
2022/01/21 13:15:46;;;;;;;18.77;3.17;;;6.20;99.90;;;;;;5015112;28;20493;-80
2022/01/21 13:18:31;;;;;;;18.00;3.47;;;6.20;99.90;;;;;;5002136;28;20061;-80
2022/01/21 13:20:59;;;;;;;21.63;3.83;;;6.20;99.90;;;;;;4987206;28;20053;-81
2022/01/21 13:23:57;;;;;;;14.30;2.60;;;6.20;99.90;;;;;;5000280;28;20499;-81
2022/01/21 13:26:25;;;;;;;21.00;3.13;;;6.20;99.90;;;;;;5006662;28;20041;-81
2022/01/21 13:28:53;;;;;;;19.02;3.75;;;6.20;99.90;;;;;;5001293;28;20065;-74
2022/01/21 13:31:19;;;;;;;20.67;3.13;;;6.30;99.90;;;;;;4989780;28;20058;-80
2022/01/21 13:33:44;;;;;;;15.82;2.72;;;6.20;99.90;;;;;;4989216;28;20046;-77
2022/01/21 13:36:10;;;;;;;12.07;1.88;;;6.30;99.90;;;;;;4998928;28;20390;-76
2022/01/21 13:38:36;;;;;;;16.80;2.63;;;6.30;99.90;;;;;;4984355;28;20041;-82
2022/01/21 13:41:07;;;;;;;17.65;2.45;;;6.40;99.90;;;;;;4995225;28;20049;-81
2022/01/21 13:43:33;;;;;;;18.60;2.67;;;6.30;99.90;;;;;;4998576;28;20487;-78
2022/01/21 13:46:04;;;;;;;19.60;2.80;;;6.40;99.90;;;;;;5009374;28;20042;-82
2022/01/21 13:48:33;;;;;;;13.65;3.03;;;7.70;99.90;;;;;;5002541;28;20121;-81
2022/01/21 13:51:01;;;;;;;20.38;2.88;;;6.40;99.90;;;;;;5001319;28;20057;-82
2022/01/21 13:53:27;;;;;;;23.20;3.17;;;6.40;99.90;;;;;;4989101;28;20445;-76
2022/01/21 13:55:57;;;;;;;17.60;2.53;;;5.80;99.90;;;;;;5003981;28;20042;-80